Time;durP1;ratioP1;P1;durP2;ratioP2;P2;SDS_P1;SDS_P2;PMS_P1;PMS_P2;Temp;Humidity;BMP_temperature;BMP_pressure;BME280_temperature;BME280_humidity;BME280_pressure;Samples;Min_cycle;Max_cycle;Signal;HPM_P1;HPM_P2
2023/09/03 00:01:46;;;;;;;0.70;0.70;;;7.60;99.90;;;;;;5038685;28;20301;-75
2023/09/03 00:04:12;;;;;;;0.63;0.63;;;7.60;99.90;;;;;;5051317;28;20735;-75
2023/09/03 00:06:37;;;;;;;0.60;0.60;;;7.60;99.90;;;;;;5052014;28;20193;-74
2023/09/03 00:09:06;;;;;;;0.60;0.60;;;7.60;99.90;;;;;;5055748;28;20190;-74
2023/09/03 00:11:32;;;;;;;1.85;1.42;;;7.50;99.90;;;;;;5055362;28;20204;-75
2023/09/03 00:13:58;;;;;;;0.70;0.70;;;7.50;99.90;;;;;;5055938;28;20284;-75
2023/09/03 00:16:25;;;;;;;0.90;0.90;;;7.50;99.90;;;;;;5055836;28;20189;-75
2023/09/03 00:18:51;;;;;;;0.70;0.70;;;7.50;99.90;;;;;;5049546;28;20212;-75
2023/09/03 00:21:17;;;;;;;0.60;0.60;;;7.50;99.90;;;;;;5055796;28;20192;-74
2023/09/03 00:23:43;;;;;;;0.68;0.68;;;7.50;99.90;;;;;;5055745;28;20201;-74
2023/09/03 00:26:17;;;;;;;0.60;0.60;;;7.50;99.90;;;;;;5055772;28;20251;-74
2023/09/03 00:28:43;;;;;;;0.70;0.70;;;7.50;99.90;;;;;;5055682;28;20280;-74
2023/09/03 00:31:08;;;;;;;0.60;0.60;;;7.60;99.90;;;;;;5055458;28;20237;-74
2023/09/03 00:33:35;;;;;;;0.63;0.63;;;7.60;99.90;;;;;;5055199;28;20213;-74
2023/09/03 00:36:02;;;;;;;0.70;0.70;;;7.60;99.90;;;;;;5055452;28;20185;-74
2023/09/03 00:38:28;;;;;;;0.80;0.80;;;7.70;99.90;;;;;;5037315;28;20194;-74
2023/09/03 00:40:54;;;;;;;0.70;0.70;;;7.70;99.90;;;;;;5055574;28;20196;-74
2023/09/03 00:43:20;;;;;;;5.15;2.25;;;7.70;99.90;;;;;;5036831;28;20593;-74
2023/09/03 00:45:47;;;;;;;0.70;0.70;;;7.70;99.90;;;;;;5054990;28;20227;-75
2023/09/03 00:48:16;;;;;;;0.60;0.60;;;7.70;99.90;;;;;;5055225;28;20268;-74
2023/09/03 00:50:43;;;;;;;0.70;0.70;;;7.70;99.90;;;;;;5055227;28;20280;-75
2023/09/03 00:53:09;;;;;;;0.60;0.60;;;7.80;99.90;;;;;;5055276;28;20251;-75
2023/09/03 00:55:38;;;;;;;0.70;0.70;;;7.80;99.90;;;;;;5037391;28;20232;-75
2023/09/03 00:58:06;;;;;;;0.70;0.70;;;7.80;99.90;;;;;;5054968;28;20251;-75
2023/09/03 01:00:33;;;;;;;0.70;0.70;;;7.90;99.90;;;;;;5054603;28;20198;-75
2023/09/03 01:03:00;;;;;;;0.60;0.60;;;7.90;99.90;;;;;;5033077;28;20272;-74
2023/09/03 01:05:26;;;;;;;0.50;0.50;;;7.90;99.90;;;;;;5068323;23;20760;-78
2023/09/03 01:07:53;;;;;;;0.60;0.60;;;7.90;99.90;;;;;;5034746;28;20607;-78
2023/09/03 01:10:24;;;;;;;0.60;0.60;;;7.90;99.90;;;;;;5017102;28;20198;-78
2023/09/03 01:13:03;;;;;;;0.60;0.60;;;8.00;99.90;;;;;;5017597;28;20210;-78
2023/09/03 01:15:33;;;;;;;1.02;0.93;;;8.00;99.90;;;;;;5017344;28;20194;-78
2023/09/03 01:18:13;;;;;;;0.60;0.60;;;8.00;99.90;;;;;;5017363;28;20197;-79
2023/09/03 01:20:59;;;;;;;0.60;0.60;;;8.10;99.90;;;;;;5016577;28;20201;-79
2023/09/03 01:23:50;;;;;;;0.60;0.60;;;8.10;99.90;;;;;;5033970;28;20620;-77
2023/09/03 01:26:31;;;;;;;0.68;0.68;;;8.10;99.90;;;;;;5017312;28;20944;-78
2023/09/03 01:28:58;;;;;;;0.60;0.60;;;8.10;99.90;;;;;;5034607;28;20198;-78
2023/09/03 01:31:25;;;;;;;0.82;0.82;;;8.10;99.90;;;;;;5016883;28;20194;-79
2023/09/03 01:33:51;;;;;;;0.70;0.70;;;8.10;99.90;;;;;;5017119;28;20668;-78
2023/09/03 01:36:19;;;;;;;0.60;0.60;;;8.10;99.90;;;;;;5034844;28;20197;-78
2023/09/03 01:38:44;;;;;;;0.60;0.60;;;8.00;99.90;;;;;;5034830;28;20218;-80
2023/09/03 01:41:10;;;;;;;0.95;0.95;;;8.00;99.90;;;;;;5017064;28;20197;-78
2023/09/03 01:43:36;;;;;;;0.60;0.60;;;7.90;99.90;;;;;;5016085;28;20237;-78
2023/09/03 01:46:22;;;;;;;0.50;0.50;;;7.90;99.90;;;;;;5034579;28;20194;-78
2023/09/03 01:49:24;;;;;;;0.60;0.60;;;7.90;99.90;;;;;;5034474;28;20747;-78
2023/09/03 01:52:19;;;;;;;0.57;0.57;;;7.90;99.90;;;;;;5034558;28;20284;-78
2023/09/03 01:54:48;;;;;;;0.60;0.60;;;7.80;99.90;;;;;;5034772;28;20194;-78
2023/09/03 01:57:30;;;;;;;0.63;0.63;;;7.80;99.90;;;;;;5034387;28;20260;-78
2023/09/03 02:00:00;;;;;;;0.75;0.75;;;7.70;99.90;;;;;;5016415;28;20728;-78
2023/09/03 02:02:28;;;;;;;0.70;0.70;;;7.60;99.90;;;;;;5016341;28;20202;-78
2023/09/03 02:04:54;;;;;;;0.60;0.60;;;7.60;99.90;;;;;;5006259;28;20234;-78
2023/09/03 02:07:20;;;;;;;0.60;0.60;;;7.60;99.90;;;;;;5014102;28;20261;-77
2023/09/03 02:09:46;;;;;;;0.60;0.60;;;7.50;99.90;;;;;;4996618;28;20210;-78
2023/09/03 02:12:12;;;;;;;0.57;0.57;;;7.50;99.90;;;;;;5014046;28;20202;-78
2023/09/03 02:14:37;;;;;;;0.60;0.60;;;7.50;99.90;;;;;;4996756;28;20744;-77
2023/09/03 02:17:03;;;;;;;0.63;0.63;;;7.40;99.90;;;;;;4996840;28;20222;-76
2023/09/03 02:19:29;;;;;;;0.70;0.70;;;7.50;99.90;;;;;;5013886;28;20660;-76
2023/09/03 02:21:54;;;;;;;0.80;0.80;;;7.50;99.90;;;;;;4996254;28;20203;-77
2023/09/03 02:24:20;;;;;;;0.70;0.70;;;7.60;99.90;;;;;;4980099;28;20286;-76
2023/09/03 02:26:46;;;;;;;0.70;0.70;;;7.70;99.90;;;;;;4996421;28;20206;-77
2023/09/03 02:29:13;;;;;;;0.60;0.60;;;7.80;99.90;;;;;;4996774;28;20329;-76
2023/09/03 02:31:39;;;;;;;0.70;0.70;;;7.90;99.90;;;;;;5013626;28;20646;-77
2023/09/03 02:34:06;;;;;;;0.70;0.70;;;8.00;99.90;;;;;;4996156;28;20222;-76
2023/09/03 02:36:34;;;;;;;0.55;0.55;;;8.00;99.90;;;;;;4996095;28;20225;-77
2023/09/03 02:39:04;;;;;;;0.60;0.60;;;8.00;99.90;;;;;;4996319;28;20206;-77
2023/09/03 02:41:30;;;;;;;0.60;0.60;;;7.90;99.90;;;;;;4995877;28;20590;-77
2023/09/03 02:44:00;;;;;;;0.70;0.70;;;7.80;99.90;;;;;;5013294;28;20195;-78
2023/09/03 02:46:27;;;;;;;0.60;0.60;;;7.70;99.90;;;;;;5013199;28;20198;-77
2023/09/03 02:48:53;;;;;;;0.60;0.60;;;7.60;99.90;;;;;;5013610;28;20218;-78
2023/09/03 02:51:18;;;;;;;0.60;0.60;;;7.60;99.90;;;;;;4995912;28;20669;-76
2023/09/03 02:53:45;;;;;;;0.70;0.70;;;7.50;99.90;;;;;;5014711;28;20217;-76
2023/09/03 02:56:12;;;;;;;0.65;0.65;;;7.50;99.90;;;;;;5015693;28;20248;-76
2023/09/03 02:58:38;;;;;;;0.60;0.60;;;7.40;99.90;;;;;;5015477;28;20563;-77
2023/09/03 03:01:12;;;;;;;0.50;0.50;;;7.40;99.90;;;;;;5007052;28;20199;-77
2023/09/03 03:03:38;;;;;;;0.60;0.60;;;7.40;99.90;;;;;;4993167;28;20673;-76
2023/09/03 03:06:04;;;;;;;0.60;0.60;;;7.40;99.90;;;;;;5032933;28;20303;-77
2023/09/03 03:08:29;;;;;;;0.70;0.70;;;7.30;99.90;;;;;;5015332;28;20206;-76
2023/09/03 03:11:25;;;;;;;0.70;0.70;;;7.30;99.90;;;;;;5033048;28;20561;-77
2023/09/03 03:13:52;;;;;;;0.68;0.68;;;7.30;99.90;;;;;;5024605;28;20229;-77
2023/09/03 03:16:18;;;;;;;0.60;0.60;;;7.30;99.90;;;;;;5032902;28;20205;-77
2023/09/03 03:18:45;;;;;;;0.68;0.68;;;7.20;99.90;;;;;;5014989;28;20202;-77
2023/09/03 03:21:17;;;;;;;0.70;0.70;;;7.20;99.90;;;;;;5032733;28;20193;-77
2023/09/03 03:23:47;;;;;;;0.60;0.60;;;7.20;99.90;;;;;;5015132;28;20213;-76
2023/09/03 03:26:12;;;;;;;0.60;0.60;;;7.10;99.90;;;;;;5015321;28;20205;-76
2023/09/03 03:28:38;;;;;;;0.70;0.70;;;7.10;99.90;;;;;;5032631;28;20198;-76
2023/09/03 03:31:15;;;;;;;0.70;0.70;;;7.00;99.90;;;;;;5014438;28;20198;-76
2023/09/03 03:33:43;;;;;;;0.70;0.70;;;7.00;99.90;;;;;;5031853;28;20577;-76
2023/09/03 03:36:12;;;;;;;0.60;0.60;;;7.00;99.90;;;;;;5014974;28;20254;-76
2023/09/03 03:38:38;;;;;;;0.70;0.70;;;6.90;99.90;;;;;;5032605;28;20756;-76
2023/09/03 03:41:17;;;;;;;0.65;0.65;;;6.90;99.90;;;;;;5015103;28;20249;-77
2023/09/03 03:43:44;;;;;;;0.65;0.65;;;6.80;99.90;;;;;;5036022;28;20240;-76
2023/09/03 03:46:14;;;;;;;0.70;0.70;;;6.70;99.90;;;;;;5019154;28;20198;-77
2023/09/03 03:48:40;;;;;;;0.70;0.70;;;6.70;99.90;;;;;;5018985;28;20715;-76
2023/09/03 03:51:06;;;;;;;0.70;0.70;;;6.70;99.90;;;;;;5036824;28;20198;-77
2023/09/03 03:53:32;;;;;;;0.60;0.60;;;6.70;99.90;;;;;;5036394;28;20202;-77
2023/09/03 03:56:01;;;;;;;0.60;0.60;;;6.60;99.90;;;;;;5019299;28;20232;-76
2023/09/03 03:58:29;;;;;;;0.70;0.70;;;6.60;99.90;;;;;;5018848;28;20198;-76
2023/09/03 04:00:54;;;;;;;0.70;0.70;;;6.60;99.90;;;;;;5018568;28;20198;-76
2023/09/03 04:03:22;;;;;;;0.52;0.52;;;6.60;99.90;;;;;;5018024;28;20263;-77
2023/09/03 04:06:01;;;;;;;0.60;0.60;;;6.60;99.90;;;;;;5018595;28;20237;-76
2023/09/03 04:08:28;;;;;;;0.70;0.70;;;6.60;99.90;;;;;;5036404;28;20202;-76
2023/09/03 04:11:07;;;;;;;0.70;0.70;;;6.60;99.90;;;;;;5018464;28;20596;-76
2023/09/03 04:13:33;;;;;;;0.60;0.60;;;6.60;99.90;;;;;;5036529;28;20210;-77
2023/09/03 04:15:59;;;;;;;0.70;0.70;;;6.60;99.90;;;;;;5036252;28;20685;-78
2023/09/03 04:18:27;;;;;;;0.70;0.70;;;6.70;99.90;;;;;;5018358;28;20202;-77
2023/09/03 04:20:54;;;;;;;0.60;0.60;;;6.70;99.90;;;;;;5017869;28;20198;-77
2023/09/03 04:23:20;;;;;;;0.68;0.68;;;6.80;99.90;;;;;;5035819;28;20661;-77
2023/09/03 04:25:46;;;;;;;0.70;0.70;;;6.90;99.90;;;;;;5036159;28;20248;-77
2023/09/03 04:28:12;;;;;;;0.60;0.60;;;7.00;99.90;;;;;;5035090;28;20198;-77
2023/09/03 04:30:39;;;;;;;0.60;0.60;;;7.10;99.90;;;;;;5035949;28;20206;-76
2023/09/03 04:33:08;;;;;;;0.70;0.70;;;7.20;99.90;;;;;;5018085;28;20210;-76
2023/09/03 04:35:35;;;;;;;0.60;0.60;;;7.30;99.90;;;;;;5036166;28;20197;-79
2023/09/03 04:38:01;;;;;;;0.70;0.70;;;7.30;99.90;;;;;;5018418;28;20198;-79
2023/09/03 04:40:26;;;;;;;0.60;0.60;;;7.40;99.90;;;;;;5018121;28;20217;-79
2023/09/03 04:42:52;;;;;;;0.70;0.70;;;7.50;99.90;;;;;;5018654;28;20198;-78
2023/09/03 04:45:18;;;;;;;0.70;0.70;;;7.50;99.90;;;;;;5035609;28;20226;-79
2023/09/03 04:47:44;;;;;;;0.60;0.60;;;7.60;99.90;;;;;;5018341;28;20206;-79
2023/09/03 04:50:10;;;;;;;0.50;0.50;;;7.70;99.90;;;;;;5017995;28;20248;-79
2023/09/03 04:52:39;;;;;;;0.70;0.70;;;7.90;99.90;;;;;;5034294;28;20664;-79
2023/09/03 04:55:05;;;;;;;0.60;0.60;;;8.00;99.90;;;;;;5034290;28;20194;-79
2023/09/03 04:57:30;;;;;;;0.60;0.60;;;8.20;99.90;;;;;;5016963;28;20297;-79
2023/09/03 04:59:56;;;;;;;0.70;0.70;;;8.40;99.90;;;;;;5035651;28;20586;-79
2023/09/03 05:02:22;;;;;;;0.65;0.65;;;8.50;99.90;;;;;;5035139;28;20204;-79
2023/09/03 05:04:47;;;;;;;0.70;0.70;;;8.60;99.90;;;;;;5008494;28;20246;-79
2023/09/03 05:07:13;;;;;;;0.60;0.60;;;8.70;99.90;;;;;;5015763;28;20207;-79
2023/09/03 05:09:38;;;;;;;1.08;1.08;;;8.90;99.90;;;;;;4997986;28;20241;-79
2023/09/03 05:12:05;;;;;;;0.60;0.60;;;9.00;99.90;;;;;;4997822;28;20673;-79
2023/09/03 05:14:31;;;;;;;0.70;0.70;;;9.10;99.90;;;;;;5015195;28;20198;-79
2023/09/03 05:16:56;;;;;;;0.60;0.60;;;9.10;99.90;;;;;;5015432;28;20191;-78
2023/09/03 05:19:22;;;;;;;0.60;0.60;;;9.20;99.90;;;;;;5015150;28;20191;-77
2023/09/03 05:21:48;;;;;;;0.60;0.60;;;9.20;99.90;;;;;;5015386;28;20191;-78
2023/09/03 05:24:13;;;;;;;0.60;0.60;;;9.30;99.90;;;;;;4997660;28;20213;-79
2023/09/03 05:26:39;;;;;;;0.60;0.60;;;9.40;99.90;;;;;;4997632;28;20203;-78
2023/09/03 05:29:04;;;;;;;0.70;0.70;;;9.40;99.90;;;;;;5014924;28;20285;-79
2023/09/03 05:31:30;;;;;;;0.60;0.60;;;9.50;99.90;;;;;;4997255;28;20297;-79
2023/09/03 05:34:02;;;;;;;0.80;0.80;;;9.50;99.90;;;;;;4997585;28;20253;-79
2023/09/03 05:36:28;;;;;;;0.52;0.52;;;9.60;99.90;;;;;;4997349;28;20191;-79
2023/09/03 05:38:53;;;;;;;0.70;0.70;;;9.60;99.90;;;;;;4997337;28;20892;-78
2023/09/03 05:41:19;;;;;;;0.60;0.60;;;9.60;99.90;;;;;;5014951;28;20191;-78
2023/09/03 05:43:45;;;;;;;0.60;0.60;;;9.50;99.90;;;;;;5014782;28;20206;-78
2023/09/03 05:46:10;;;;;;;0.70;0.70;;;9.60;99.90;;;;;;4997410;28;20213;-81
2023/09/03 05:48:36;;;;;;;0.50;0.50;;;9.60;99.90;;;;;;5014801;28;20206;-81
2023/09/03 05:51:06;;;;;;;0.60;0.60;;;9.60;99.90;;;;;;5014990;28;20194;-81
2023/09/03 05:53:33;;;;;;;0.70;0.70;;;9.70;99.90;;;;;;5014521;28;20299;-81
2023/09/03 05:56:12;;;;;;;0.63;0.63;;;9.80;99.90;;;;;;5014529;28;20191;-81
2023/09/03 05:58:38;;;;;;;0.82;0.82;;;9.90;99.90;;;;;;4996723;28;20609;-81
2023/09/03 06:01:05;;;;;;;0.60;0.60;;;10.00;99.90;;;;;;5014543;28;20596;-81
2023/09/03 06:03:31;;;;;;;0.60;0.60;;;10.10;99.90;;;;;;4996923;28;20293;-81
2023/09/03 06:06:04;;;;;;;0.50;0.50;;;10.20;99.90;;;;;;5015205;28;20325;-81
2023/09/03 06:08:31;;;;;;;0.70;0.70;;;10.30;99.90;;;;;;5034439;28;20213;-81
2023/09/03 06:10:57;;;;;;;0.70;0.70;;;10.50;99.90;;;;;;5033362;28;20301;-81
2023/09/03 06:13:23;;;;;;;0.55;0.55;;;10.60;99.90;;;;;;5016380;28;20300;-81
2023/09/03 06:15:49;;;;;;;0.70;0.70;;;10.70;99.90;;;;;;5016769;28;20555;-84
2023/09/03 06:18:15;;;;;;;1.35;0.90;;;10.80;99.90;;;;;;5016723;28;20194;-81
2023/09/03 06:20:41;;;;;;;0.60;0.60;;;10.90;99.90;;;;;;5016367;28;20190;-80
2023/09/03 06:23:08;;;;;;;0.60;0.60;;;11.00;99.90;;;;;;5034278;28;20711;-81
2023/09/03 06:25:38;;;;;;;0.50;0.50;;;11.10;99.90;;;;;;5034151;28;20190;-81
2023/09/03 06:28:04;;;;;;;0.52;0.52;;;11.20;99.90;;;;;;5034298;28;20555;-80
2023/09/03 06:30:29;;;;;;;0.50;0.50;;;11.30;99.90;;;;;;5016499;28;20194;-80
2023/09/03 06:32:55;;;;;;;0.93;0.82;;;11.40;99.90;;;;;;5016033;28;20210;-80
2023/09/03 06:35:20;;;;;;;0.93;0.82;;;11.50;99.90;;;;;;5015763;28;20198;-80
2023/09/03 06:37:46;;;;;;;0.43;0.43;;;11.50;99.90;;;;;;5018130;28;20272;-80
2023/09/03 06:40:14;;;;;;;0.50;0.50;;;11.60;99.90;;;;;;5035958;28;20204;-80
2023/09/03 06:42:43;;;;;;;0.60;0.60;;;11.70;99.90;;;;;;5053804;28;20247;-80
2023/09/03 06:45:10;;;;;;;0.77;0.77;;;11.70;99.90;;;;;;5043244;28;20660;-80
2023/09/03 06:47:38;;;;;;;0.52;0.52;;;11.70;99.90;;;;;;5015514;28;20225;-80
2023/09/03 06:50:07;;;;;;;0.50;0.50;;;11.80;99.90;;;;;;5033333;28;20190;-81
2023/09/03 06:52:34;;;;;;;0.52;0.52;;;11.80;99.90;;;;;;5033204;28;20198;-80
2023/09/03 06:55:00;;;;;;;0.60;0.60;;;11.80;99.90;;;;;;5016434;28;20285;-80
2023/09/03 06:57:26;;;;;;;0.82;0.82;;;11.80;99.90;;;;;;5015571;28;20194;-80
2023/09/03 06:59:52;;;;;;;0.50;0.50;;;11.80;99.90;;;;;;5033672;28;20194;-80
2023/09/03 07:02:17;;;;;;;0.65;0.65;;;11.80;99.90;;;;;;5015815;28;20202;-80
2023/09/03 07:04:43;;;;;;;0.52;0.52;;;11.70;99.90;;;;;;5015273;28;20716;-80
2023/09/03 07:07:09;;;;;;;0.77;0.73;;;11.80;99.90;;;;;;5020633;28;20259;-79
2023/09/03 07:09:35;;;;;;;0.32;0.32;;;11.70;99.90;;;;;;5035087;28;20197;-79
2023/09/03 07:12:01;;;;;;;4.40;0.95;;;11.70;99.90;;;;;;5019023;28;20255;-80
2023/09/03 07:14:33;;;;;;;0.50;0.50;;;11.60;99.90;;;;;;5015432;28;20205;-80
2023/09/03 07:17:00;;;;;;;0.55;0.55;;;11.70;99.90;;;;;;5032867;28;20563;-79
2023/09/03 07:19:28;;;;;;;0.50;0.50;;;11.80;99.90;;;;;;5018675;28;20677;-80
2023/09/03 07:21:53;;;;;;;0.57;0.57;;;11.90;99.90;;;;;;5050153;28;20185;-81
2023/09/03 07:24:19;;;;;;;0.40;0.40;;;12.00;99.90;;;;;;5052397;28;20200;-81
2023/09/03 07:26:45;;;;;;;0.50;0.50;;;12.00;99.90;;;;;;5034963;28;20204;-81
2023/09/03 07:29:12;;;;;;;0.85;0.55;;;12.10;99.90;;;;;;5035113;28;20201;-81
2023/09/03 07:31:41;;;;;;;0.85;0.77;;;12.10;99.90;;;;;;5034756;28;20197;-81
2023/09/03 07:34:16;;;;;;;0.43;0.43;;;12.20;99.90;;;;;;5031906;28;20650;-81
2023/09/03 07:36:42;;;;;;;0.60;0.60;;;12.30;99.90;;;;;;5015254;28;20201;-81
2023/09/03 07:39:09;;;;;;;0.50;0.50;;;12.40;99.90;;;;;;5015255;28;20562;-81
2023/09/03 07:41:35;;;;;;;0.57;0.57;;;12.50;99.90;;;;;;5032828;28;20664;-81
2023/09/03 07:44:01;;;;;;;0.57;0.57;;;12.60;99.90;;;;;;5014935;28;20672;-81
2023/09/03 07:46:27;;;;;;;0.60;0.60;;;12.70;99.90;;;;;;5015605;28;20224;-80
2023/09/03 07:48:53;;;;;;;0.50;0.50;;;12.90;99.90;;;;;;5032587;28;20190;-80
2023/09/03 07:51:19;;;;;;;0.47;0.47;;;13.10;99.90;;;;;;5014984;28;20202;-80
2023/09/03 07:53:49;;;;;;;0.47;0.47;;;13.30;99.90;;;;;;5033269;28;20633;-80
2023/09/03 07:56:18;;;;;;;0.68;0.68;;;13.50;99.90;;;;;;5032726;28;20269;-80
2023/09/03 07:58:44;;;;;;;0.68;0.60;;;13.70;99.90;;;;;;5015287;28;20210;-79
2023/09/03 08:01:11;;;;;;;0.40;0.40;;;13.70;99.90;;;;;;5015184;28;20224;-79
2023/09/03 08:03:42;;;;;;;0.47;0.47;;;13.90;99.90;;;;;;5014614;28;20209;-79
2023/09/03 08:06:08;;;;;;;0.50;0.50;;;13.90;99.90;;;;;;5015309;28;20716;-78
2023/09/03 08:08:34;;;;;;;0.40;0.40;;;14.10;99.90;;;;;;5014648;28;20659;-78
2023/09/03 08:11:00;;;;;;;0.40;0.40;;;14.20;99.90;;;;;;5032261;28;20280;-78
2023/09/03 08:13:26;;;;;;;0.40;0.40;;;14.10;99.90;;;;;;5032288;28;20225;-78
2023/09/03 08:15:52;;;;;;;0.40;0.40;;;14.30;99.90;;;;;;5014608;28;20645;-78
2023/09/03 08:18:18;;;;;;;0.47;0.47;;;14.40;99.90;;;;;;5014781;28;20209;-78
2023/09/03 08:20:44;;;;;;;0.40;0.40;;;14.50;99.90;;;;;;5032455;28;20558;-78
2023/09/03 08:23:11;;;;;;;0.60;0.60;;;14.60;99.90;;;;;;5032401;28;20213;-78
2023/09/03 08:25:37;;;;;;;0.43;0.43;;;14.60;99.90;;;;;;5014499;28;20206;-78
2023/09/03 08:28:04;;;;;;;0.55;0.55;;;14.70;99.90;;;;;;5014784;28;20259;-77
2023/09/03 08:30:29;;;;;;;0.77;0.70;;;14.60;99.90;;;;;;5017759;28;20544;-78
2023/09/03 08:32:55;;;;;;;0.40;0.40;;;14.60;99.90;;;;;;5035829;28;20285;-78
2023/09/03 08:35:20;;;;;;;0.90;0.60;;;14.80;99.90;;;;;;5018160;28;20303;-78
2023/09/03 08:37:46;;;;;;;0.40;0.40;;;14.90;99.90;;;;;;5017522;28;20198;-78
2023/09/03 08:40:12;;;;;;;0.40;0.40;;;15.10;99.90;;;;;;5035583;28;20197;-78
2023/09/03 08:42:41;;;;;;;0.40;0.40;;;15.20;99.90;;;;;;5018824;28;20241;-78
2023/09/03 08:45:15;;;;;;;0.50;0.50;;;15.20;99.90;;;;;;5035765;28;20249;-80
2023/09/03 08:47:42;;;;;;;0.40;0.40;;;15.50;99.90;;;;;;5035536;28;20194;-78
2023/09/03 08:50:09;;;;;;;0.40;0.40;;;16.10;99.90;;;;;;5035689;28;20190;-78
2023/09/03 08:52:37;;;;;;;0.30;0.30;;;16.80;99.90;;;;;;5035316;28;20206;-77
2023/09/03 08:55:05;;;;;;;0.35;0.35;;;17.20;99.90;;;;;;5035590;28;20194;-77
2023/09/03 08:57:34;;;;;;;0.50;0.50;;;17.80;99.90;;;;;;5035317;28;20190;-78
2023/09/03 09:00:05;;;;;;;0.57;0.50;;;18.10;99.90;;;;;;5035397;28;20658;-78
2023/09/03 09:02:33;;;;;;;0.30;0.30;;;18.00;99.90;;;;;;5035226;28;20202;-78
2023/09/03 09:05:00;;;;;;;0.70;0.40;;;18.20;99.90;;;;;;5017459;28;20230;-78
2023/09/03 09:07:26;;;;;;;0.30;0.30;;;18.50;99.90;;;;;;5035097;28;20245;-77
2023/09/03 09:09:54;;;;;;;0.30;0.30;;;18.80;99.90;;;;;;5017434;28;20202;-77
2023/09/03 09:12:36;;;;;;;0.38;0.30;;;19.00;99.90;;;;;;5038656;28;20197;-77
2023/09/03 09:15:05;;;;;;;0.40;0.40;;;19.00;99.90;;;;;;5055617;28;20233;-79
2023/09/03 09:17:41;;;;;;;0.20;0.20;;;19.00;99.90;;;;;;5055186;28;20211;-79
2023/09/03 09:20:09;;;;;;;0.28;0.28;;;19.10;99.90;;;;;;5037606;28;20550;-78
2023/09/03 09:22:48;;;;;;;0.40;0.40;;;19.20;99.90;;;;;;5055172;28;20193;-78
2023/09/03 09:25:22;;;;;;;0.35;0.35;;;19.30;99.90;;;;;;5054958;28;20205;-78
2023/09/03 09:27:49;;;;;;;0.65;0.50;;;19.20;99.90;;;;;;5055220;28;20279;-78
2023/09/03 09:30:19;;;;;;;0.30;0.30;;;19.40;99.90;;;;;;5054918;28;20267;-78
2023/09/03 09:32:45;;;;;;;0.30;0.30;;;19.60;99.90;;;;;;5036321;28;20205;-78
2023/09/03 09:35:25;;;;;;;0.30;0.30;;;19.50;99.90;;;;;;5055367;28;20212;-78
2023/09/03 09:37:50;;;;;;;0.30;0.30;;;19.50;99.90;;;;;;5042765;28;20641;-78
2023/09/03 09:40:32;;;;;;;0.30;0.30;;;19.60;99.90;;;;;;5034226;28;20193;-76
2023/09/03 09:43:00;;;;;;;1.30;0.50;;;19.70;99.90;;;;;;5015160;28;20195;-76
2023/09/03 09:45:27;;;;;;;0.30;0.30;;;19.80;99.90;;;;;;5014812;28;20622;-76
2023/09/03 09:48:07;;;;;;;0.20;0.20;;;19.80;99.90;;;;;;5014879;28;20709;-76
2023/09/03 09:50:37;;;;;;;0.20;0.20;;;19.60;99.90;;;;;;5014621;28;20274;-76
2023/09/03 09:53:04;;;;;;;0.20;0.20;;;19.60;99.90;;;;;;5014700;28;20665;-76
2023/09/03 09:55:32;;;;;;;0.25;0.25;;;19.70;99.90;;;;;;5019493;28;20198;-76
2023/09/03 09:57:58;;;;;;;0.28;0.28;;;19.40;99.90;;;;;;5036369;28;20196;-76
2023/09/03 10:00:37;;;;;;;0.45;0.40;;;19.50;99.90;;;;;;5036252;28;20205;-75
2023/09/03 10:03:05;;;;;;;0.35;0.35;;;19.60;99.90;;;;;;5036168;28;20197;-76
2023/09/03 10:05:31;;;;;;;0.20;0.20;;;19.50;99.90;;;;;;5053793;28;20229;-75
2023/09/03 10:07:58;;;;;;;0.22;0.22;;;19.60;99.90;;;;;;5048844;28;20564;-76
2023/09/03 10:10:24;;;;;;;0.20;0.20;;;19.60;99.90;;;;;;5033707;28;20208;-77
2023/09/03 10:12:50;;;;;;;0.40;0.40;;;19.70;99.90;;;;;;5033982;28;20210;-76
2023/09/03 10:15:15;;;;;;;0.20;0.20;;;19.70;99.90;;;;;;5034113;28;20214;-76
2023/09/03 10:17:45;;;;;;;0.30;0.30;;;19.70;99.90;;;;;;5034000;28;20205;-77
2023/09/03 10:20:15;;;;;;;0.20;0.20;;;19.80;99.90;;;;;;5016358;28;20195;-78
2023/09/03 10:22:42;;;;;;;0.20;0.20;;;19.80;99.90;;;;;;5016602;28;20674;-77
2023/09/03 10:25:12;;;;;;;0.22;0.22;;;19.90;99.90;;;;;;5015828;28;20198;-77
2023/09/03 10:27:43;;;;;;;0.80;0.60;;;20.00;99.90;;;;;;5033693;28;20201;-77
2023/09/03 10:30:15;;;;;;;0.32;0.32;;;19.90;99.90;;;;;;5015886;28;20209;-78
2023/09/03 10:32:42;;;;;;;0.20;0.20;;;19.70;99.90;;;;;;5015595;28;20296;-77
2023/09/03 10:35:09;;;;;;;0.28;0.28;;;19.70;99.90;;;;;;5033850;28;20277;-78
2023/09/03 10:37:37;;;;;;;0.20;0.20;;;19.60;99.90;;;;;;5033537;28;20260;-77
2023/09/03 10:40:20;;;;;;;0.30;0.30;;;19.80;99.90;;;;;;5015975;28;20549;-78
2023/09/03 10:42:51;;;;;;;0.35;0.35;;;19.90;99.90;;;;;;5033679;28;20197;-77
2023/09/03 10:45:18;;;;;;;0.20;0.20;;;20.00;99.90;;;;;;5033844;28;20705;-77
2023/09/03 10:48:03;;;;;;;0.20;0.20;;;20.10;99.90;;;;;;4999736;28;20292;-76
2023/09/03 10:50:43;;;;;;;0.35;0.28;;;20.20;99.90;;;;;;5033298;28;20186;-79
2023/09/03 10:53:10;;;;;;;1.10;0.52;;;20.30;99.90;;;;;;5033146;28;20209;-75
2023/09/03 10:55:35;;;;;;;0.30;0.30;;;20.30;99.90;;;;;;5033075;28;20197;-78
2023/09/03 10:58:10;;;;;;;0.50;0.50;;;20.30;99.90;;;;;;5032925;28;20217;-76
2023/09/03 11:00:36;;;;;;;0.30;0.30;;;20.40;99.90;;;;;;5033214;28;20203;-76
2023/09/03 11:03:18;;;;;;;0.32;0.32;;;20.10;99.90;;;;;;5032896;28;20552;-76
2023/09/03 11:06:21;;;;;;;0.30;0.30;;;20.10;99.90;;;;;;5032877;28;20256;-76
2023/09/03 11:09:10;;;;;;;0.57;0.55;;;20.20;99.90;;;;;;4991586;28;20205;-76
2023/09/03 11:11:38;;;;;;;0.45;0.45;;;20.20;99.90;;;;;;4992171;28;20214;-76
2023/09/03 11:14:07;;;;;;;0.30;0.30;;;20.00;99.90;;;;;;4995553;28;20690;-76
2023/09/03 11:16:35;;;;;;;0.20;0.20;;;19.90;99.90;;;;;;5013311;28;20313;-76
2023/09/03 11:19:04;;;;;;;0.55;0.55;;;19.90;99.90;;;;;;5013512;28;20186;-76
2023/09/03 11:21:30;;;;;;;1.95;0.40;;;20.00;99.90;;;;;;5013230;28;20191;-77
2023/09/03 11:24:06;;;;;;;0.57;0.38;;;20.00;99.90;;;;;;5013402;28;20203;-78
2023/09/03 11:26:33;;;;;;;0.30;0.30;;;19.90;99.90;;;;;;5013137;28;20198;-78
2023/09/03 11:29:00;;;;;;;0.90;0.40;;;20.00;99.90;;;;;;5013715;28;20538;-78
2023/09/03 11:31:27;;;;;;;0.30;0.30;;;20.10;99.90;;;;;;5032582;28;20186;-77
2023/09/03 11:33:53;;;;;;;0.25;0.25;;;20.10;99.90;;;;;;5024581;28;20207;-78
2023/09/03 11:36:24;;;;;;;0.20;0.20;;;20.10;99.90;;;;;;4995418;28;20263;-77
2023/09/03 11:38:55;;;;;;;0.28;0.28;;;20.20;99.90;;;;;;5013304;28;20206;-78
2023/09/03 11:41:21;;;;;;;0.55;0.55;;;20.20;99.90;;;;;;5013103;28;20210;-78
2023/09/03 11:43:47;;;;;;;2.53;0.45;;;19.80;99.90;;;;;;5012608;28;20568;-78
2023/09/03 11:46:14;;;;;;;0.35;0.35;;;19.60;99.90;;;;;;5013301;28;20209;-78
2023/09/03 11:48:41;;;;;;;0.40;0.40;;;19.80;99.90;;;;;;5012889;28;20249;-78
2023/09/03 11:51:08;;;;;;;0.60;0.60;;;19.90;99.90;;;;;;5013078;28;20194;-78
2023/09/03 11:53:43;;;;;;;0.57;0.57;;;20.20;99.90;;;;;;5012745;28;20619;-78
2023/09/03 11:56:14;;;;;;;0.20;0.20;;;20.40;99.90;;;;;;4995273;28;20289;-77
2023/09/03 11:58:41;;;;;;;1.23;0.70;;;20.40;99.90;;;;;;5012874;28;20195;-78
2023/09/03 12:01:07;;;;;;;0.30;0.30;;;20.60;99.90;;;;;;5023099;28;20277;-77
2023/09/03 12:03:33;;;;;;;0.30;0.30;;;20.70;99.90;;;;;;5015712;28;20206;-78
2023/09/03 12:06:00;;;;;;;0.20;0.20;;;20.80;99.90;;;;;;5036386;28;20244;-78
2023/09/03 12:08:31;;;;;;;0.30;0.30;;;21.00;99.90;;;;;;5018680;28;20198;-78
2023/09/03 12:10:56;;;;;;;0.82;0.73;;;21.20;99.90;;;;;;5029441;28;20202;-78
2023/09/03 12:13:34;;;;;;;0.40;0.40;;;20.80;99.90;;;;;;5016472;28;20538;-78
2023/09/03 12:16:11;;;;;;;0.43;0.40;;;20.80;99.90;;;;;;5016635;28;20195;-78
2023/09/03 12:18:38;;;;;;;2.08;0.40;;;21.00;99.90;;;;;;5016494;28;20547;-77
2023/09/03 12:21:07;;;;;;;0.20;0.20;;;21.30;99.90;;;;;;4998843;28;20666;-77
2023/09/03 12:23:37;;;;;;;0.40;0.40;;;21.60;99.90;;;;;;5016653;28;20294;-76
2023/09/03 12:26:03;;;;;;;0.50;0.50;;;21.70;99.90;;;;;;5016185;28;20245;-78
2023/09/03 12:28:34;;;;;;;0.90;0.73;;;21.60;99.90;;;;;;5016377;28;20195;-77
2023/09/03 12:31:02;;;;;;;0.28;0.25;;;21.70;99.90;;;;;;5017850;28;20203;-77
2023/09/03 12:33:49;;;;;;;0.30;0.30;;;21.60;99.90;;;;;;4998149;28;20207;-78
2023/09/03 12:36:20;;;;;;;0.77;0.60;;;21.60;99.90;;;;;;4998670;28;20191;-78
2023/09/03 12:38:52;;;;;;;0.30;0.30;;;21.40;99.90;;;;;;5015568;28;20556;-77
2023/09/03 12:41:17;;;;;;;0.57;0.57;;;21.00;99.90;;;;;;5015563;28;20193;-78
2023/09/03 12:43:43;;;;;;;4.63;0.55;;;21.10;99.90;;;;;;5016010;28;20207;-77
2023/09/03 12:46:10;;;;;;;1.13;0.40;;;21.50;99.90;;;;;;5016291;28;20622;-75
2023/09/03 12:48:36;;;;;;;0.25;0.25;;;21.60;99.90;;;;;;4998304;28;20198;-80
2023/09/03 12:51:02;;;;;;;0.95;0.68;;;21.60;99.90;;;;;;5015839;28;20301;-76
2023/09/03 12:53:28;;;;;;;0.45;0.45;;;21.90;99.90;;;;;;5015960;28;20202;-79
2023/09/03 12:55:55;;;;;;;0.77;0.43;;;22.20;99.90;;;;;;5016188;28;20567;-78
2023/09/03 12:58:21;;;;;;;0.30;0.30;;;22.30;99.90;;;;;;5033985;28;20194;-77